PWSweather.com
Personal Weather Stations
Station Observations
KM4VKY
Mossy Head, Crestview, FL 32539

Mossy HeadCrestview, FL 32539

Lat: 30.70978546, Lon: -86.40254974

Elevation: 215

Station Type: Acurite

Latest ConditionsUpdated 9:00:00 PM CST Sunday, Feb 17, 2019
Currently Today's Max Today's Min Today's Average
Temperature 69.1°F20.6°C 77.2°F25.1°C 63.1°F17.3°C 69.2°F20.7°C
Dew Point 68.8°F20.4°C 73.2°F22.9°C 62.8°F17.1°C 68.2°F20.1°C
Winds 3.6 mph S5.8 kmh S 10.8 mph -17.4 kmh - - 3.8 mph 6.1 kmh
Wind Gusts 5.8 mph9.3 kmh 16.6 mph26.7 kmh - -
Humidity 99% 99% 85% 97%
Pressure 29.84 in1010.5 mb 29.85 in1010.8 mb 29.76 in1007.8 mb -
Hour Temp Dew Point Humidity Winds Wind Gusts Pressure Precip Precip Rate Daily Precip Total
09:00 PM 69.1°F20.6°C 68.8°F20.4°C 99% 3.6 mph S5.8 kmh S 5.8 mph9.3 kmh 29.84 in1010.5 mb 0.00 in0.0 mm 0.00 in0.0 mm 0.00 in0.0 mm
08:55 PM 69.1°F20.6°C 68.8°F20.4°C 99% 2.8 mph SSE4.5 kmh SSE 4.7 mph7.6 kmh 29.84 in1010.5 mb 0.00 in0.0 mm 0.00 in0.0 mm 0.00 in0.0 mm
08:50 PM 69.1°F20.6°C 68.8°F20.4°C 99% 1.1 mph S1.8 kmh S 3.7 mph6.0 kmh 29.84 in1010.5 mb 0.00 in0.0 mm 0.00 in0.0 mm 0.00 in0.0 mm
08:45 PM 69.1°F20.6°C 68.8°F20.4°C 99% 2.1 mph S3.4 kmh S 4.7 mph7.6 kmh 29.84 in1010.5 mb 0.00 in0.0 mm 0.00 in0.0 mm 0.00 in0.0 mm
08:40 PM 69.1°F20.6°C 68.8°F20.4°C 99% 3.7 mph S6.0 kmh S 5.8 mph9.3 kmh 29.84 in1010.5 mb 0.00 in0.0 mm 0.00 in0.0 mm 0.00 in0.0 mm
08:35 PM 69.1°F20.6°C 68.8°F20.4°C 99% 3.0 mph S4.8 kmh S 4.7 mph7.6 kmh 29.84 in1010.5 mb 0.00 in0.0 mm 0.00 in0.0 mm 0.00 in0.0 mm
08:30 PM 69.1°F20.6°C 68.8°F20.4°C 99% 2.4 mph S3.9 kmh S 4.7 mph7.6 kmh 29.84 in1010.5 mb 0.00 in0.0 mm 0.00 in0.0 mm 0.00 in0.0 mm
08:25 PM 69.2°F20.7°C 68.9°F20.5°C 99% 2.9 mph SSW4.7 kmh SSW 5.3 mph8.5 kmh 29.83 in1010.2 mb 0.00 in0.0 mm 0.00 in0.0 mm 0.00 in0.0 mm
08:20 PM 69.3°F20.7°C 69.0°F20.6°C 99% 3.5 mph SSW5.6 kmh SSW 5.3 mph8.5 kmh 29.83 in1010.2 mb 0.00 in0.0 mm 0.00 in0.0 mm 0.00 in0.0 mm
08:15 PM 69.3°F20.7°C 69.0°F20.6°C 99% 3.6 mph S5.8 kmh S 5.3 mph8.5 kmh 29.84 in1010.5 mb 0.00 in0.0 mm 0.00 in0.0 mm 0.00 in0.0 mm
08:10 PM 69.3°F20.7°C 69.0°F20.6°C 99% 3.2 mph SSW5.1 kmh SSW 5.8 mph9.3 kmh 29.84 in1010.5 mb 0.00 in0.0 mm 0.00 in0.0 mm 0.00 in0.0 mm
08:05 PM 69.3°F20.7°C 69.0°F20.6°C 99% 3.4 mph S5.5 kmh S 4.7 mph7.6 kmh 29.84 in1010.5 mb 0.00 in0.0 mm 0.00 in0.0 mm 0.00 in0.0 mm
08:00 PM 69.3°F20.7°C 69.0°F20.6°C 99% 2.2 mph SSW3.5 kmh SSW 4.2 mph6.8 kmh 29.83 in1010.2 mb 0.00 in0.0 mm 0.00 in0.0 mm 0.00 in0.0 mm
07:55 PM 69.4°F20.8°C 69.1°F20.6°C 99% 1.5 mph S2.4 kmh S 3.2 mph5.1 kmh 29.83 in1010.2 mb 0.00 in0.0 mm 0.00 in0.0 mm 0.00 in0.0 mm
07:50 PM 69.4°F20.8°C 69.1°F20.6°C 99% 3.4 mph S5.5 kmh S 4.7 mph7.6 kmh 29.83 in1010.2 mb 0.00 in0.0 mm 0.00 in0.0 mm 0.00 in0.0 mm
07:45 PM 69.6°F20.9°C 69.3°F20.7°C 99% 3.4 mph S5.5 kmh S 8.3 mph13.4 kmh 29.83 in1010.2 mb 0.00 in0.0 mm 0.00 in0.0 mm 0.00 in0.0 mm
07:40 PM 69.6°F20.9°C 69.3°F20.7°C 99% 2.9 mph S4.7 kmh S 3.7 mph6.0 kmh 29.83 in1010.2 mb 0.00 in0.0 mm 0.00 in0.0 mm 0.00 in0.0 mm
07:35 PM 69.6°F20.9°C 69.3°F20.7°C 99% 3.8 mph S6.1 kmh S 5.8 mph9.3 kmh 29.83 in1010.2 mb 0.00 in0.0 mm 0.00 in0.0 mm 0.00 in0.0 mm
07:30 PM 69.6°F20.9°C 69.3°F20.7°C 99% 3.9 mph S6.3 kmh S 5.3 mph8.5 kmh 29.83 in1010.2 mb 0.00 in0.0 mm 0.00 in0.0 mm 0.00 in0.0 mm
07:25 PM 69.6°F20.9°C 69.3°F20.7°C 99% 4.2 mph S6.8 kmh S 6.3 mph10.1 kmh 29.83 in1010.2 mb 0.00 in0.0 mm 0.00 in0.0 mm 0.00 in0.0 mm
07:20 PM 69.6°F20.9°C 69.3°F20.7°C 99% 3.5 mph S5.6 kmh S 5.3 mph8.5 kmh 29.83 in1010.2 mb 0.00 in0.0 mm 0.00 in0.0 mm 0.00 in0.0 mm
07:15 PM 69.8°F21.0°C 69.5°F20.8°C 99% 4.5 mph SSW7.2 kmh SSW 7.3 mph11.7 kmh 29.83 in1010.2 mb 0.00 in0.0 mm 0.00 in0.0 mm 0.00 in0.0 mm
07:10 PM 69.8°F21.0°C 69.5°F20.8°C 99% 3.6 mph S5.8 kmh S 5.3 mph8.5 kmh 29.83 in1010.2 mb 0.00 in0.0 mm 0.00 in0.0 mm 0.00 in0.0 mm
07:05 PM 69.8°F21.0°C 69.5°F20.8°C 99% 3.7 mph S6.0 kmh S 4.7 mph7.6 kmh 29.83 in1010.2 mb 0.00 in0.0 mm 0.00 in0.0 mm 0.00 in0.0 mm
07:00 PM 69.8°F21.0°C 69.5°F20.8°C 99% 5.0 mph S8.0 kmh S 5.8 mph9.3 kmh 29.82 in1009.8 mb 0.00 in0.0 mm 0.00 in0.0 mm 0.00 in0.0 mm
06:55 PM 69.8°F21.0°C 69.5°F20.8°C 99% 4.6 mph SSW7.4 kmh SSW 6.8 mph10.9 kmh 29.82 in1009.8 mb 0.00 in0.0 mm 0.00 in0.0 mm 0.00 in0.0 mm
06:50 PM 69.8°F21.0°C 69.5°F20.8°C 99% 5.7 mph SSW9.2 kmh SSW 7.3 mph11.7 kmh 29.82 in1009.8 mb 0.00 in0.0 mm 0.00 in0.0 mm 0.00 in0.0 mm
06:45 PM 69.9°F21.1°C 69.6°F20.9°C 99% 3.8 mph SSW6.1 kmh SSW 4.7 mph7.6 kmh 29.82 in1009.8 mb 0.00 in0.0 mm 0.00 in0.0 mm 0.00 in0.0 mm
06:40 PM 70.0°F21.1°C 69.7°F20.9°C 99% 3.2 mph S5.1 kmh S 4.2 mph6.8 kmh 29.82 in1009.8 mb 0.00 in0.0 mm 0.00 in0.0 mm 0.00 in0.0 mm
06:35 PM 70.0°F21.1°C 69.7°F20.9°C 99% 4.6 mph SSW7.4 kmh SSW 6.3 mph10.1 kmh 29.82 in1009.8 mb 0.00 in0.0 mm 0.00 in0.0 mm 0.00 in0.0 mm
06:30 PM 70.0°F21.1°C 69.7°F20.9°C 99% 5.1 mph SSW8.2 kmh SSW 7.8 mph12.6 kmh 29.82 in1009.8 mb 0.00 in0.0 mm 0.00 in0.0 mm 0.00 in0.0 mm
06:25 PM 70.0°F21.1°C 69.7°F20.9°C 99% 4.7 mph S7.6 kmh S 7.3 mph11.7 kmh 29.81 in1009.5 mb 0.00 in0.0 mm 0.00 in0.0 mm 0.00 in0.0 mm
06:20 PM 70.0°F21.1°C 69.7°F20.9°C 99% 4.7 mph SSW7.6 kmh SSW 7.8 mph12.6 kmh 29.81 in1009.5 mb 0.00 in0.0 mm 0.00 in0.0 mm 0.00 in0.0 mm
06:15 PM 70.0°F21.1°C 69.7°F20.9°C 99% 4.2 mph S6.8 kmh S 6.3 mph10.1 kmh 29.81 in1009.5 mb 0.00 in0.0 mm 0.00 in0.0 mm 0.00 in0.0 mm
06:10 PM 70.0°F21.1°C 69.7°F20.9°C 99% 5.5 mph SSW8.9 kmh SSW 7.8 mph12.6 kmh 29.81 in1009.5 mb 0.00 in0.0 mm 0.00 in0.0 mm 0.00 in0.0 mm
06:05 PM 70.0°F21.1°C 69.7°F20.9°C 99% 5.0 mph S8.0 kmh S 7.3 mph11.7 kmh 29.81 in1009.5 mb 0.00 in0.0 mm 0.00 in0.0 mm 0.00 in0.0 mm
06:00 PM 70.3°F21.3°C 70.0°F21.1°C 99% 5.5 mph SSW8.9 kmh SSW 7.8 mph12.6 kmh 29.80 in1009.1 mb 0.00 in0.0 mm 0.00 in0.0 mm 0.00 in0.0 mm
05:55 PM 70.3°F21.3°C 70.0°F21.1°C 99% 6.1 mph SSW9.8 kmh SSW 7.8 mph12.6 kmh 29.80 in1009.1 mb 0.00 in0.0 mm 0.00 in0.0 mm 0.00 in0.0 mm
05:50 PM 70.3°F21.3°C 70.0°F21.1°C 99% 5.2 mph S8.4 kmh S 6.8 mph10.9 kmh 29.80 in1009.1 mb 0.00 in0.0 mm 0.00 in0.0 mm 0.00 in0.0 mm
05:45 PM 70.3°F21.3°C 70.0°F21.1°C 99% 5.7 mph S9.2 kmh S 7.8 mph12.6 kmh 29.80 in1009.1 mb 0.00 in0.0 mm 0.00 in0.0 mm 0.00 in0.0 mm
05:40 PM 70.5°F21.4°C 70.2°F21.2°C 99% 5.6 mph SSW9.0 kmh SSW 7.8 mph12.6 kmh 29.80 in1009.1 mb 0.00 in0.0 mm 0.00 in0.0 mm 0.00 in0.0 mm
05:35 PM 70.6°F21.4°C 70.3°F21.3°C 99% 4.5 mph S7.2 kmh S 6.8 mph10.9 kmh 29.80 in1009.1 mb 0.00 in0.0 mm 0.00 in0.0 mm 0.00 in0.0 mm
05:30 PM 70.7°F21.5°C 70.4°F21.3°C 99% 5.3 mph S8.5 kmh S 7.8 mph12.6 kmh 29.80 in1009.1 mb 0.00 in0.0 mm 0.00 in0.0 mm 0.00 in0.0 mm
05:25 PM 70.7°F21.5°C 70.4°F21.3°C 99% 5.3 mph SSW8.5 kmh SSW 7.3 mph11.7 kmh 29.80 in1009.1 mb 0.00 in0.0 mm 0.00 in0.0 mm 0.00 in0.0 mm
05:20 PM 70.9°F21.6°C 70.6°F21.4°C 99% 4.8 mph SSW7.7 kmh SSW 7.8 mph12.6 kmh 29.80 in1009.1 mb 0.00 in0.0 mm 0.00 in0.0 mm 0.00 in0.0 mm
05:15 PM 71.0°F21.7°C 70.7°F21.5°C 99% 4.8 mph SSW7.7 kmh SSW 7.3 mph11.7 kmh 29.79 in1008.8 mb 0.00 in0.0 mm 0.00 in0.0 mm 0.00 in0.0 mm
05:10 PM 71.1°F21.7°C 70.8°F21.6°C 99% 6.9 mph S11.1 kmh S 10.4 mph16.7 kmh 29.79 in1008.8 mb 0.00 in0.0 mm 0.00 in0.0 mm 0.00 in0.0 mm
05:05 PM 71.1°F21.7°C 70.8°F21.6°C 99% 7.7 mph SSW12.4 kmh SSW 10.4 mph16.7 kmh 29.79 in1008.8 mb 0.00 in0.0 mm 0.00 in0.0 mm 0.00 in0.0 mm
05:00 PM 71.2°F21.8°C 71.0°F21.7°C 99% 6.6 mph SSW10.6 kmh SSW 9.9 mph15.9 kmh 29.79 in1008.8 mb 0.00 in0.0 mm 0.00 in0.0 mm 0.00 in0.0 mm
04:55 PM 71.4°F21.9°C 71.1°F21.7°C 99% 6.2 mph SSW10.0 kmh SSW 8.9 mph14.3 kmh 29.79 in1008.8 mb 0.00 in0.0 mm 0.00 in0.0 mm 0.00 in0.0 mm
04:50 PM 71.4°F21.9°C 71.1°F21.7°C 99% 7.0 mph SSW11.3 kmh SSW 9.4 mph15.1 kmh 29.79 in1008.8 mb 0.00 in0.0 mm 0.00 in0.0 mm 0.00 in0.0 mm
04:45 PM 71.5°F21.9°C 71.2°F21.8°C 99% 6.5 mph SSW10.5 kmh SSW 8.9 mph14.3 kmh 29.79 in1008.8 mb 0.00 in0.0 mm 0.00 in0.0 mm 0.00 in0.0 mm
04:40 PM 71.6°F22.0°C 71.3°F21.8°C 99% 7.1 mph SSW11.4 kmh SSW 8.9 mph14.3 kmh 29.79 in1008.8 mb 0.00 in0.0 mm 0.00 in0.0 mm 0.00 in0.0 mm
04:35 PM 71.6°F22.0°C 71.3°F21.8°C 99% 7.7 mph SSW12.4 kmh SSW 9.9 mph15.9 kmh 29.79 in1008.8 mb 0.00 in0.0 mm 0.00 in0.0 mm 0.00 in0.0 mm
04:30 PM 71.6°F22.0°C 71.3°F21.8°C 99% 8.7 mph S14.0 kmh S 11.9 mph19.2 kmh 29.78 in1008.5 mb 0.00 in0.0 mm 0.00 in0.0 mm 0.00 in0.0 mm
04:25 PM 71.8°F22.1°C 71.5°F21.9°C 99% 8.3 mph SSW13.4 kmh SSW 10.9 mph17.5 kmh 29.78 in1008.5 mb 0.00 in0.0 mm 0.00 in0.0 mm 0.00 in0.0 mm
04:20 PM 71.8°F22.1°C 71.5°F21.9°C 99% 7.6 mph SSW12.2 kmh SSW 11.4 mph18.3 kmh 29.78 in1008.5 mb 0.00 in0.0 mm 0.00 in0.0 mm 0.00 in0.0 mm
04:15 PM 71.8°F22.1°C 71.5°F21.9°C 99% 7.3 mph SSW11.7 kmh SSW 10.4 mph16.7 kmh 29.78 in1008.5 mb 0.00 in0.0 mm 0.00 in0.0 mm 0.00 in0.0 mm
04:10 PM 71.8°F22.1°C 71.5°F21.9°C 99% 6.6 mph SSW10.6 kmh SSW 10.4 mph16.7 kmh 29.78 in1008.5 mb 0.00 in0.0 mm 0.00 in0.0 mm 0.00 in0.0 mm
04:05 PM 71.8°F22.1°C 71.5°F21.9°C 99% 5.9 mph SSW9.5 kmh SSW 8.9 mph14.3 kmh 29.78 in1008.5 mb 0.00 in0.0 mm 0.00 in0.0 mm 0.00 in0.0 mm
04:00 PM 71.9°F22.2°C 71.6°F22.0°C 99% 6.9 mph S11.1 kmh S 9.9 mph15.9 kmh 29.79 in1008.8 mb 0.00 in0.0 mm 0.00 in0.0 mm 0.00 in0.0 mm
03:55 PM 72.0°F22.2°C 71.7°F22.1°C 99% 6.6 mph S10.6 kmh S 8.3 mph13.4 kmh 29.78 in1008.5 mb 0.00 in0.0 mm 0.00 in0.0 mm 0.00 in0.0 mm
03:50 PM 72.3°F22.4°C 72.0°F22.2°C 99% 7.9 mph S12.7 kmh S 13.0 mph20.9 kmh 29.78 in1008.5 mb 0.00 in0.0 mm 0.00 in0.0 mm 0.00 in0.0 mm
03:45 PM 72.5°F22.5°C 72.2°F22.3°C 99% 6.4 mph SSW10.3 kmh SSW 9.4 mph15.1 kmh 29.78 in1008.5 mb 0.00 in0.0 mm 0.00 in0.0 mm 0.00 in0.0 mm
03:40 PM 72.5°F22.5°C 72.2°F22.3°C 99% 5.7 mph S9.2 kmh S 7.8 mph12.6 kmh 29.78 in1008.5 mb 0.00 in0.0 mm 0.00 in0.0 mm 0.00 in0.0 mm
03:35 PM 72.6°F22.6°C 72.3°F22.4°C 99% 7.1 mph S11.4 kmh S 9.9 mph15.9 kmh 29.78 in1008.5 mb 0.00 in0.0 mm 0.00 in0.0 mm 0.00 in0.0 mm
03:30 PM 72.7°F22.6°C 72.4°F22.4°C 99% 7.1 mph S11.4 kmh S 9.4 mph15.1 kmh 29.78 in1008.5 mb 0.00 in0.0 mm 0.00 in0.0 mm 0.00 in0.0 mm
03:25 PM 72.8°F22.7°C 72.5°F22.5°C 99% 6.9 mph SSW11.1 kmh SSW 9.9 mph15.9 kmh 29.78 in1008.5 mb 0.00 in0.0 mm 0.00 in0.0 mm 0.00 in0.0 mm
03:20 PM 73.1°F22.8°C 72.5°F22.5°C 98% 7.3 mph S11.7 kmh S 11.4 mph18.3 kmh 29.78 in1008.5 mb 0.00 in0.0 mm 0.00 in0.0 mm 0.00 in0.0 mm
03:15 PM 73.4°F23.0°C 72.5°F22.5°C 97% 8.7 mph SSW14.0 kmh SSW 11.4 mph18.3 kmh 29.77 in1008.1 mb 0.00 in0.0 mm 0.00 in0.0 mm 0.00 in0.0 mm
03:10 PM 73.6°F23.1°C 72.7°F22.6°C 97% 7.3 mph SSW11.7 kmh SSW 10.4 mph16.7 kmh 29.77 in1008.1 mb 0.00 in0.0 mm 0.00 in0.0 mm 0.00 in0.0 mm
03:05 PM 73.6°F23.1°C 72.7°F22.6°C 97% 7.8 mph S12.6 kmh S 10.4 mph16.7 kmh 29.77 in1008.1 mb 0.00 in0.0 mm 0.00 in0.0 mm 0.00 in0.0 mm
03:00 PM 73.8°F23.2°C 72.9°F22.7°C 97% 7.3 mph SSW11.7 kmh SSW 10.4 mph16.7 kmh 29.78 in1008.5 mb 0.00 in0.0 mm 0.00 in0.0 mm 0.00 in0.0 mm
02:55 PM 74.0°F23.3°C 73.1°F22.8°C 97% 5.9 mph SSW9.5 kmh SSW 9.4 mph15.1 kmh 29.78 in1008.5 mb 0.00 in0.0 mm 0.00 in0.0 mm 0.00 in0.0 mm
02:50 PM 73.5°F23.1°C 72.9°F22.7°C 98% 6.3 mph S10.1 kmh S 9.4 mph15.1 kmh 29.77 in1008.1 mb 0.00 in0.0 mm 0.00 in0.0 mm 0.00 in0.0 mm
02:45 PM 73.6°F23.1°C 72.9°F22.7°C 98% 7.2 mph S11.6 kmh S 8.9 mph14.3 kmh 29.77 in1008.1 mb 0.00 in0.0 mm 0.00 in0.0 mm 0.00 in0.0 mm
02:40 PM 73.7°F23.2°C 73.1°F22.8°C 98% 6.1 mph SSW9.8 kmh SSW 9.4 mph15.1 kmh 29.78 in1008.5 mb 0.00 in0.0 mm 0.00 in0.0 mm 0.00 in0.0 mm
02:35 PM 73.8°F23.2°C 73.2°F22.9°C 98% 3.8 mph SSW6.1 kmh SSW 5.8 mph9.3 kmh 29.78 in1008.5 mb 0.00 in0.0 mm 0.00 in0.0 mm 0.00 in0.0 mm
02:30 PM 73.8°F23.2°C 73.2°F22.9°C 98% 4.0 mph S6.4 kmh S 5.3 mph8.5 kmh 29.78 in1008.5 mb 0.00 in0.0 mm 0.00 in0.0 mm 0.00 in0.0 mm
02:25 PM 73.9°F23.3°C 73.0°F22.8°C 97% 5.0 mph S8.0 kmh S 7.3 mph11.7 kmh 29.78 in1008.5 mb 0.00 in0.0 mm 0.00 in0.0 mm 0.00 in0.0 mm
02:20 PM 73.9°F23.3°C 72.9°F22.7°C 96% 4.9 mph S7.9 kmh S 7.3 mph11.7 kmh 29.78 in1008.5 mb 0.00 in0.0 mm 0.00 in0.0 mm 0.00 in0.0 mm
02:15 PM 74.8°F23.8°C 72.5°F22.5°C 93% 5.7 mph S9.2 kmh S 8.3 mph13.4 kmh 29.78 in1008.5 mb 0.00 in0.0 mm 0.00 in0.0 mm 0.00 in0.0 mm
02:10 PM 75.3°F24.1°C 72.8°F22.7°C 92% 5.9 mph S9.5 kmh S 9.4 mph15.1 kmh 29.78 in1008.5 mb 0.00 in0.0 mm 0.00 in0.0 mm 0.00 in0.0 mm
02:05 PM 74.7°F23.7°C 72.2°F22.3°C 92% 6.3 mph SSW10.1 kmh SSW 8.9 mph14.3 kmh 29.79 in1008.8 mb 0.00 in0.0 mm 0.00 in0.0 mm 0.00 in0.0 mm
02:00 PM 74.7°F23.7°C 72.2°F22.3°C 92% 6.9 mph SSW11.1 kmh SSW 9.4 mph15.1 kmh 29.79 in1008.8 mb 0.00 in0.0 mm 0.00 in0.0 mm 0.00 in0.0 mm
01:55 PM 74.4°F23.6°C 71.9°F22.2°C 92% 5.4 mph S8.7 kmh S 8.3 mph13.4 kmh 29.79 in1008.8 mb 0.00 in0.0 mm 0.00 in0.0 mm 0.00 in0.0 mm
01:50 PM 75.0°F23.9°C 71.9°F22.2°C 90% 9.0 mph SSW14.5 kmh SSW 10.9 mph17.5 kmh 29.79 in1008.8 mb 0.00 in0.0 mm 0.00 in0.0 mm 0.00 in0.0 mm
01:45 PM 75.4°F24.1°C 71.9°F22.2°C 89% 9.8 mph S15.8 kmh S 16.6 mph26.7 kmh 29.79 in1008.8 mb 0.00 in0.0 mm 0.00 in0.0 mm 0.00 in0.0 mm
01:40 PM 75.4°F24.1°C 72.1°F22.3°C 89% 7.9 mph SSW12.7 kmh SSW 12.5 mph20.1 kmh 29.79 in1008.8 mb 0.00 in0.0 mm 0.00 in0.0 mm 0.00 in0.0 mm
01:35 PM 75.6°F24.2°C 72.5°F22.5°C 90% 7.0 mph S11.3 kmh S 10.9 mph17.5 kmh 29.80 in1009.1 mb 0.00 in0.0 mm 0.00 in0.0 mm 0.00 in0.0 mm
01:30 PM 75.5°F24.2°C 72.0°F22.2°C 89% 7.8 mph SSW12.6 kmh SSW 9.9 mph15.9 kmh 29.79 in1008.8 mb 0.00 in0.0 mm 0.00 in0.0 mm 0.00 in0.0 mm
01:25 PM 75.7°F24.3°C 72.3°F22.4°C 89% 8.5 mph S13.7 kmh S 11.9 mph19.2 kmh 29.79 in1008.8 mb 0.00 in0.0 mm 0.00 in0.0 mm 0.00 in0.0 mm
01:20 PM 76.2°F24.6°C 72.5°F22.5°C 88% 7.7 mph S12.4 kmh S 10.9 mph17.5 kmh 29.79 in1008.8 mb 0.00 in0.0 mm 0.00 in0.0 mm 0.00 in0.0 mm
01:15 PM 76.4°F24.7°C 72.6°F22.6°C 88% 7.8 mph S12.6 kmh S 10.9 mph17.5 kmh 29.80 in1009.1 mb 0.00 in0.0 mm 0.00 in0.0 mm 0.00 in0.0 mm
01:10 PM 76.5°F24.7°C 72.6°F22.6°C 88% 10.1 mph S16.3 kmh S 14.0 mph22.5 kmh 29.80 in1009.1 mb 0.00 in0.0 mm 0.00 in0.0 mm 0.00 in0.0 mm
01:05 PM 76.5°F24.7°C 72.7°F22.6°C 88% 6.9 mph S11.1 kmh S 10.9 mph17.5 kmh 29.80 in1009.1 mb 0.00 in0.0 mm 0.00 in0.0 mm 0.00 in0.0 mm
01:00 PM 76.7°F24.8°C 72.8°F22.7°C 88% 7.2 mph S11.6 kmh S 9.9 mph15.9 kmh 29.80 in1009.1 mb 0.00 in0.0 mm 0.00 in0.0 mm 0.00 in0.0 mm
12:55 PM 76.7°F24.8°C 72.8°F22.7°C 88% 8.4 mph SSW13.5 kmh SSW 10.4 mph16.7 kmh 29.80 in1009.1 mb 0.00 in0.0 mm 0.00 in0.0 mm 0.00 in0.0 mm
12:50 PM 76.2°F24.6°C 72.7°F22.6°C 89% 8.1 mph S13.0 kmh S 11.9 mph19.2 kmh 29.81 in1009.5 mb 0.00 in0.0 mm 0.00 in0.0 mm 0.00 in0.0 mm
12:45 PM 76.0°F24.4°C 72.5°F22.5°C 89% 6.8 mph S10.9 kmh S 8.9 mph14.3 kmh 29.81 in1009.5 mb 0.00 in0.0 mm 0.00 in0.0 mm 0.00 in0.0 mm
12:40 PM 76.1°F24.5°C 72.3°F22.4°C 88% 9.2 mph SSW14.8 kmh SSW 11.9 mph19.2 kmh 29.81 in1009.5 mb 0.00 in0.0 mm 0.00 in0.0 mm 0.00 in0.0 mm
12:35 PM 76.0°F24.4°C 72.2°F22.3°C 88% 7.3 mph S11.7 kmh S 11.9 mph19.2 kmh 29.81 in1009.5 mb 0.00 in0.0 mm 0.00 in0.0 mm 0.00 in0.0 mm
12:30 PM 76.4°F24.7°C 72.6°F22.6°C 88% 10.2 mph SSW16.4 kmh SSW 13.5 mph21.7 kmh 29.81 in1009.5 mb 0.00 in0.0 mm 0.00 in0.0 mm 0.00 in0.0 mm
12:25 PM 75.7°F24.3°C 72.2°F22.3°C 89% 8.3 mph SSW13.4 kmh SSW 9.4 mph15.1 kmh 29.81 in1009.5 mb 0.00 in0.0 mm 0.00 in0.0 mm 0.00 in0.0 mm
12:20 PM 75.7°F24.3°C 72.0°F22.2°C 88% 9.1 mph SSW14.6 kmh SSW 11.9 mph19.2 kmh 29.81 in1009.5 mb 0.00 in0.0 mm 0.00 in0.0 mm 0.00 in0.0 mm
12:15 PM 75.8°F24.3°C 71.9°F22.2°C 88% 9.2 mph SSW14.8 kmh SSW 11.4 mph18.3 kmh 29.81 in1009.5 mb 0.00 in0.0 mm 0.00 in0.0 mm 0.00 in0.0 mm
12:10 PM 76.3°F24.6°C 72.1°F22.3°C 87% 10.7 mph SSW17.2 kmh SSW 15.5 mph24.9 kmh 29.81 in1009.5 mb 0.00 in0.0 mm 0.00 in0.0 mm 0.00 in0.0 mm
12:05 PM 77.2°F25.1°C 72.5°F22.5°C 86% 9.6 mph S15.4 kmh S 15.5 mph24.9 kmh 29.81 in1009.5 mb 0.00 in0.0 mm 0.00 in0.0 mm 0.00 in0.0 mm
12:00 PM 77.1°F25.1°C 72.5°F22.5°C 86% 10.4 mph SSW16.7 kmh SSW 16.1 mph25.9 kmh 29.82 in1009.8 mb 0.00 in0.0 mm 0.00 in0.0 mm 0.00 in0.0 mm
11:55 AM 76.5°F24.7°C 72.2°F22.3°C 86% 8.9 mph SSW14.3 kmh SSW 15.0 mph24.1 kmh 29.82 in1009.8 mb 0.00 in0.0 mm 0.00 in0.0 mm 0.00 in0.0 mm
11:50 AM 77.0°F25.0°C 72.3°F22.4°C 85% 10.8 mph SSW17.4 kmh SSW 16.6 mph26.7 kmh 29.82 in1009.8 mb 0.00 in0.0 mm 0.00 in0.0 mm 0.00 in0.0 mm
11:45 AM 76.2°F24.6°C 71.8°F22.1°C 86% 6.6 mph S10.6 kmh S 8.9 mph14.3 kmh 29.82 in1009.8 mb 0.00 in0.0 mm 0.00 in0.0 mm 0.00 in0.0 mm
11:40 AM 76.0°F24.4°C 71.7°F22.1°C 86% 6.5 mph S10.5 kmh S 9.4 mph15.1 kmh 29.82 in1009.8 mb 0.00 in0.0 mm 0.00 in0.0 mm 0.00 in0.0 mm
11:35 AM 76.1°F24.5°C 71.7°F22.1°C 86% 7.3 mph SSW11.7 kmh SSW 12.5 mph20.1 kmh 29.82 in1009.8 mb 0.00 in0.0 mm 0.00 in0.0 mm 0.00 in0.0 mm
11:30 AM 75.6°F24.2°C 71.4°F21.9°C 87% 5.1 mph S8.2 kmh S 7.8 mph12.6 kmh 29.83 in1010.2 mb 0.00 in0.0 mm 0.00 in0.0 mm 0.00 in0.0 mm
11:25 AM 75.2°F24.0°C 71.3°F21.8°C 88% 5.9 mph S9.5 kmh S 10.4 mph16.7 kmh 29.83 in1010.2 mb 0.00 in0.0 mm 0.00 in0.0 mm 0.00 in0.0 mm
11:20 AM 74.8°F23.8°C 71.0°F21.7°C 88% 6.2 mph SSW10.0 kmh SSW 8.3 mph13.4 kmh 29.83 in1010.2 mb 0.00 in0.0 mm 0.00 in0.0 mm 0.00 in0.0 mm
11:15 AM 75.2°F24.0°C 71.2°F21.8°C 88% 7.0 mph S11.3 kmh S 10.4 mph16.7 kmh 29.84 in1010.5 mb 0.00 in0.0 mm 0.00 in0.0 mm 0.00 in0.0 mm
11:10 AM 74.3°F23.5°C 71.1°F21.7°C 90% 5.5 mph SSW8.9 kmh SSW 7.8 mph12.6 kmh 29.84 in1010.5 mb 0.00 in0.0 mm 0.00 in0.0 mm 0.00 in0.0 mm
11:05 AM 73.9°F23.3°C 70.6°F21.4°C 89% 5.7 mph S9.2 kmh S 8.3 mph13.4 kmh 29.84 in1010.5 mb 0.00 in0.0 mm 0.00 in0.0 mm 0.00 in0.0 mm
11:00 AM 74.7°F23.7°C 71.0°F21.7°C 88% 5.9 mph S9.5 kmh S 7.8 mph12.6 kmh 29.84 in1010.5 mb 0.00 in0.0 mm 0.00 in0.0 mm 0.00 in0.0 mm
10:55 AM 75.0°F23.9°C 71.3°F21.8°C 88% 7.3 mph S11.7 kmh S 11.4 mph18.3 kmh 29.84 in1010.5 mb 0.00 in0.0 mm 0.00 in0.0 mm 0.00 in0.0 mm
10:50 AM 74.1°F23.4°C 71.1°F21.7°C 90% 9.6 mph SSW15.4 kmh SSW 13.0 mph20.9 kmh 29.84 in1010.5 mb 0.00 in0.0 mm 0.00 in0.0 mm 0.00 in0.0 mm
10:45 AM 74.1°F23.4°C 71.3°F21.8°C 91% 7.9 mph SSW12.7 kmh SSW 10.9 mph17.5 kmh 29.84 in1010.5 mb 0.00 in0.0 mm 0.00 in0.0 mm 0.00 in0.0 mm
10:40 AM 73.1°F22.8°C 70.9°F21.6°C 93% 8.4 mph S13.5 kmh S 11.4 mph18.3 kmh 29.84 in1010.5 mb 0.00 in0.0 mm 0.00 in0.0 mm 0.00 in0.0 mm
10:35 AM 73.6°F23.1°C 71.4°F21.9°C 93% 7.1 mph S11.4 kmh S 12.5 mph20.1 kmh 29.83 in1010.2 mb 0.00 in0.0 mm 0.00 in0.0 mm 0.00 in0.0 mm
10:30 AM 73.3°F22.9°C 71.4°F21.9°C 94% 6.0 mph S9.7 kmh S 7.8 mph12.6 kmh 29.83 in1010.2 mb 0.00 in0.0 mm 0.00 in0.0 mm 0.00 in0.0 mm
10:25 AM 72.9°F22.7°C 71.1°F21.7°C 94% 6.5 mph SSW10.5 kmh SSW 9.4 mph15.1 kmh 29.85 in1010.8 mb 0.00 in0.0 mm 0.00 in0.0 mm 0.00 in0.0 mm
10:20 AM 72.6°F22.6°C 71.1°F21.7°C 95% 6.3 mph S10.1 kmh S 8.9 mph14.3 kmh 29.85 in1010.8 mb 0.00 in0.0 mm 0.00 in0.0 mm 0.00 in0.0 mm
10:15 AM 72.8°F22.7°C 71.3°F21.8°C 95% 5.2 mph S8.4 kmh S 9.4 mph15.1 kmh 29.84 in1010.5 mb 0.00 in0.0 mm 0.00 in0.0 mm 0.00 in0.0 mm
10:10 AM 72.7°F22.6°C 71.7°F22.1°C 97% 5.1 mph S8.2 kmh S 9.4 mph15.1 kmh 29.84 in1010.5 mb 0.00 in0.0 mm 0.00 in0.0 mm 0.00 in0.0 mm
10:05 AM 72.3°F22.4°C 71.6°F22.0°C 98% 4.6 mph S7.4 kmh S 6.8 mph10.9 kmh 29.84 in1010.5 mb 0.00 in0.0 mm 0.00 in0.0 mm 0.00 in0.0 mm
10:00 AM 72.0°F22.2°C 71.4°F21.9°C 98% 4.3 mph SSW6.9 kmh SSW 6.3 mph10.1 kmh 29.84 in1010.5 mb 0.00 in0.0 mm 0.00 in0.0 mm 0.00 in0.0 mm
09:55 AM 72.0°F22.2°C 71.7°F22.1°C 99% 4.6 mph SSW7.4 kmh SSW 7.3 mph11.7 kmh 29.84 in1010.5 mb 0.00 in0.0 mm 0.00 in0.0 mm 0.00 in0.0 mm
09:50 AM 72.0°F22.2°C 71.7°F22.1°C 99% 4.6 mph SW7.4 kmh SW 7.3 mph11.7 kmh 29.83 in1010.2 mb 0.00 in0.0 mm 0.00 in0.0 mm 0.00 in0.0 mm
09:45 AM 71.5°F21.9°C 71.2°F21.8°C 99% 4.6 mph SW7.4 kmh SW 8.3 mph13.4 kmh 29.83 in1010.2 mb 0.00 in0.0 mm 0.00 in0.0 mm 0.00 in0.0 mm
09:40 AM 71.0°F21.7°C 70.7°F21.5°C 99% 4.3 mph SW6.9 kmh SW 7.3 mph11.7 kmh 29.84 in1010.5 mb 0.00 in0.0 mm 0.00 in0.0 mm 0.00 in0.0 mm
09:35 AM 70.8°F21.6°C 70.5°F21.4°C 99% 2.8 mph S4.5 kmh S 6.3 mph10.1 kmh 29.84 in1010.5 mb 0.00 in0.0 mm 0.00 in0.0 mm 0.00 in0.0 mm
09:30 AM 70.9°F21.6°C 70.6°F21.4°C 99% 3.7 mph SSW6.0 kmh SSW 6.8 mph10.9 kmh 29.84 in1010.5 mb 0.00 in0.0 mm 0.00 in0.0 mm 0.00 in0.0 mm
09:25 AM 70.6°F21.4°C 70.3°F21.3°C 99% 3.2 mph SSW5.1 kmh SSW 5.8 mph9.3 kmh 29.84 in1010.5 mb 0.00 in0.0 mm 0.00 in0.0 mm 0.00 in0.0 mm
09:20 AM 70.2°F21.2°C 69.9°F21.1°C 99% 3.4 mph SSW5.5 kmh SSW 5.8 mph9.3 kmh 29.84 in1010.5 mb 0.00 in0.0 mm 0.00 in0.0 mm 0.00 in0.0 mm
09:15 AM 69.5°F20.8°C 69.2°F20.7°C 99% 2.8 mph S4.5 kmh S 5.3 mph8.5 kmh 29.84 in1010.5 mb 0.00 in0.0 mm 0.00 in0.0 mm 0.00 in0.0 mm
09:10 AM 69.2°F20.7°C 68.9°F20.5°C 99% 4.6 mph S7.4 kmh S 7.8 mph12.6 kmh 29.84 in1010.5 mb 0.00 in0.0 mm 0.00 in0.0 mm 0.00 in0.0 mm
09:05 AM 68.9°F20.5°C 68.6°F20.3°C 99% 4.6 mph S7.4 kmh S 7.3 mph11.7 kmh 29.84 in1010.5 mb 0.00 in0.0 mm 0.00 in0.0 mm 0.00 in0.0 mm
09:00 AM 68.6°F20.3°C 68.3°F20.2°C 99% 3.8 mph SSW6.1 kmh SSW 5.8 mph9.3 kmh 29.84 in1010.5 mb 0.00 in0.0 mm 0.00 in0.0 mm 0.00 in0.0 mm
08:55 AM 68.2°F20.1°C 67.9°F19.9°C 99% 1.8 mph S2.9 kmh S 4.2 mph6.8 kmh 29.84 in1010.5 mb 0.00 in0.0 mm 0.00 in0.0 mm 0.00 in0.0 mm
08:50 AM 67.9°F19.9°C 67.6°F19.8°C 99% 3.7 mph S6.0 kmh S 5.3 mph8.5 kmh 29.84 in1010.5 mb 0.00 in0.0 mm 0.00 in0.0 mm 0.00 in0.0 mm
08:45 AM 67.6°F19.8°C 67.3°F19.6°C 99% 2.8 mph S4.5 kmh S 4.2 mph6.8 kmh 29.84 in1010.5 mb 0.00 in0.0 mm 0.00 in0.0 mm 0.00 in0.0 mm
08:40 AM 67.1°F19.5°C 66.9°F19.4°C 99% 2.2 mph SSE3.5 kmh SSE 4.2 mph6.8 kmh 29.84 in1010.5 mb 0.00 in0.0 mm 0.00 in0.0 mm 0.00 in0.0 mm
08:35 AM 66.8°F19.3°C 66.5°F19.2°C 99% Calm Calm -- 29.84 in1010.5 mb 0.00 in0.0 mm 0.00 in0.0 mm 0.00 in0.0 mm
08:30 AM 66.6°F19.2°C 66.4°F19.1°C 99% Calm Calm -- 29.84 in1010.5 mb 0.00 in0.0 mm 0.00 in0.0 mm 0.00 in0.0 mm
08:25 AM 66.5°F19.2°C 66.2°F19.0°C 99% Calm Calm -- 29.83 in1010.2 mb 0.00 in0.0 mm 0.00 in0.0 mm 0.00 in0.0 mm
08:20 AM 66.4°F19.1°C 66.1°F18.9°C 99% 0.8 mph SSW1.3 kmh SSW 3.2 mph5.1 kmh 29.83 in1010.2 mb 0.00 in0.0 mm 0.00 in0.0 mm 0.00 in0.0 mm
08:15 AM 66.3°F19.1°C 66.0°F18.9°C 99% 2.1 mph SSW3.4 kmh SSW 4.7 mph7.6 kmh 29.83 in1010.2 mb 0.00 in0.0 mm 0.00 in0.0 mm 0.00 in0.0 mm
08:10 AM 66.2°F19.0°C 65.9°F18.8°C 99% 2.0 mph SSW3.2 kmh SSW 3.7 mph6.0 kmh 29.82 in1009.8 mb 0.00 in0.0 mm 0.00 in0.0 mm 0.00 in0.0 mm
08:05 AM 66.1°F18.9°C 65.8°F18.8°C 99% 1.6 mph SSW2.6 kmh SSW 3.7 mph6.0 kmh 29.82 in1009.8 mb 0.00 in0.0 mm 0.00 in0.0 mm 0.00 in0.0 mm
08:00 AM 66.0°F18.9°C 65.7°F18.7°C 99% 2.9 mph SSW4.7 kmh SSW 4.7 mph7.6 kmh 29.82 in1009.8 mb 0.00 in0.0 mm 0.00 in0.0 mm 0.00 in0.0 mm
07:55 AM 65.9°F18.8°C 65.6°F18.7°C 99% 2.2 mph SSW3.5 kmh SSW 3.2 mph5.1 kmh 29.82 in1009.8 mb 0.00 in0.0 mm 0.00 in0.0 mm 0.00 in0.0 mm
07:50 AM 65.8°F18.8°C 65.5°F18.6°C 99% 2.7 mph S4.3 kmh S 4.2 mph6.8 kmh 29.80 in1009.1 mb 0.00 in0.0 mm 0.00 in0.0 mm 0.00 in0.0 mm
07:45 AM 65.8°F18.8°C 65.5°F18.6°C 99% 2.8 mph S4.5 kmh S 4.7 mph7.6 kmh 29.80 in1009.1 mb 0.00 in0.0 mm 0.00 in0.0 mm 0.00 in0.0 mm
07:40 AM 65.8°F18.8°C 65.5°F18.6°C 99% 2.4 mph S3.9 kmh S 3.7 mph6.0 kmh 29.80 in1009.1 mb 0.00 in0.0 mm 0.00 in0.0 mm 0.00 in0.0 mm
07:35 AM 65.8°F18.8°C 65.5°F18.6°C 99% 2.4 mph S3.9 kmh S 4.2 mph6.8 kmh 29.80 in1009.1 mb 0.00 in0.0 mm 0.00 in0.0 mm 0.00 in0.0 mm
07:30 AM 65.8°F18.8°C 65.5°F18.6°C 99% 1.8 mph SW2.9 kmh SW 6.3 mph10.1 kmh 29.80 in1009.1 mb 0.00 in0.0 mm 0.00 in0.0 mm 0.00 in0.0 mm
07:25 AM 65.8°F18.8°C 65.5°F18.6°C 99% 1.6 mph SW2.6 kmh SW 4.7 mph7.6 kmh 29.80 in1009.1 mb 0.00 in0.0 mm 0.00 in0.0 mm 0.00 in0.0 mm
07:20 AM 65.8°F18.8°C 65.5°F18.6°C 99% 1.3 mph SSE2.1 kmh SSE 2.7 mph4.3 kmh 29.80 in1009.1 mb 0.00 in0.0 mm 0.00 in0.0 mm 0.00 in0.0 mm
07:15 AM 65.8°F18.8°C 65.5°F18.6°C 99% 0.3 mph SSE0.5 kmh SSE 1.7 mph2.7 kmh 29.79 in1008.8 mb 0.00 in0.0 mm 0.00 in0.0 mm 0.00 in0.0 mm
07:10 AM 65.8°F18.8°C 65.5°F18.6°C 99% 1.2 mph S1.9 kmh S 2.7 mph4.3 kmh 29.79 in1008.8 mb 0.00 in0.0 mm 0.00 in0.0 mm 0.00 in0.0 mm
07:05 AM 65.8°F18.8°C 65.5°F18.6°C 99% 1.1 mph SW1.8 kmh SW 3.7 mph6.0 kmh 29.80 in1009.1 mb 0.00 in0.0 mm 0.00 in0.0 mm 0.00 in0.0 mm
07:00 AM 65.8°F18.8°C 65.5°F18.6°C 99% 1.2 mph S1.9 kmh S 4.2 mph6.8 kmh 29.80 in1009.1 mb 0.00 in0.0 mm 0.00 in0.0 mm 0.00 in0.0 mm
06:55 AM 65.8°F18.8°C 65.5°F18.6°C 99% 1.7 mph SSW2.7 kmh SSW 3.7 mph6.0 kmh 29.80 in1009.1 mb 0.00 in0.0 mm 0.00 in0.0 mm 0.00 in0.0 mm
06:50 AM 65.8°F18.8°C 65.5°F18.6°C 99% 1.7 mph S2.7 kmh S 3.2 mph5.1 kmh 29.80 in1009.1 mb 0.00 in0.0 mm 0.00 in0.0 mm 0.00 in0.0 mm
06:45 AM 65.7°F18.7°C 65.4°F18.6°C 99% 1.9 mph ESE3.1 kmh ESE 2.7 mph4.3 kmh 29.80 in1009.1 mb 0.00 in0.0 mm 0.00 in0.0 mm 0.00 in0.0 mm
06:40 AM 65.7°F18.7°C 65.4°F18.6°C 99% 2.1 mph SSE3.4 kmh SSE 3.7 mph6.0 kmh 29.80 in1009.1 mb 0.00 in0.0 mm 0.00 in0.0 mm 0.00 in0.0 mm
06:35 AM 65.7°F18.7°C 65.4°F18.6°C 99% 1.7 mph SSW2.7 kmh SSW 4.7 mph7.6 kmh 29.80 in1009.1 mb 0.00 in0.0 mm 0.00 in0.0 mm 0.00 in0.0 mm
06:30 AM 65.7°F18.7°C 65.4°F18.6°C 99% 2.9 mph S4.7 kmh S 4.2 mph6.8 kmh 29.80 in1009.1 mb 0.00 in0.0 mm 0.00 in0.0 mm 0.00 in0.0 mm
06:25 AM 65.7°F18.7°C 65.4°F18.6°C 99% 1.8 mph S2.9 kmh S 3.7 mph6.0 kmh 29.79 in1008.8 mb 0.00 in0.0 mm 0.00 in0.0 mm 0.00 in0.0 mm
06:20 AM 65.5°F18.6°C 65.2°F18.4°C 99% 3.1 mph SSW5.0 kmh SSW 4.2 mph6.8 kmh 29.79 in1008.8 mb 0.00 in0.0 mm 0.00 in0.0 mm 0.00 in0.0 mm
06:15 AM 65.5°F18.6°C 65.2°F18.4°C 99% 2.1 mph S3.4 kmh S 4.7 mph7.6 kmh 29.79 in1008.8 mb 0.00 in0.0 mm 0.00 in0.0 mm 0.00 in0.0 mm
06:10 AM 65.4°F18.6°C 65.1°F18.4°C 99% 2.7 mph S4.3 kmh S 4.2 mph6.8 kmh 29.79 in1008.8 mb 0.00 in0.0 mm 0.00 in0.0 mm 0.00 in0.0 mm
06:05 AM 65.3°F18.5°C 65.0°F18.3°C 99% 0.2 mph N0.3 kmh N 2.7 mph4.3 kmh 29.79 in1008.8 mb 0.00 in0.0 mm 0.00 in0.0 mm 0.00 in0.0 mm
06:00 AM 65.3°F18.5°C 65.0°F18.3°C 99% Calm Calm -- 29.79 in1008.8 mb 0.00 in0.0 mm 0.00 in0.0 mm 0.00 in0.0 mm
05:55 AM 65.3°F18.5°C 65.0°F18.3°C 99% Calm Calm -- 29.79 in1008.8 mb 0.00 in0.0 mm 0.00 in0.0 mm 0.00 in0.0 mm
05:50 AM 65.3°F18.5°C 65.0°F18.3°C 99% Calm Calm -- 29.78 in1008.5 mb 0.00 in0.0 mm 0.00 in0.0 mm 0.00 in0.0 mm
05:45 AM 65.1°F18.4°C 64.8°F18.2°C 99% 0.7 mph S1.1 kmh S 2.7 mph4.3 kmh 29.78 in1008.5 mb 0.00 in0.0 mm 0.00 in0.0 mm 0.00 in0.0 mm
05:40 AM 65.1°F18.4°C 64.8°F18.2°C 99% 2.4 mph SSE3.9 kmh SSE 3.7 mph6.0 kmh 29.78 in1008.5 mb 0.00 in0.0 mm 0.00 in0.0 mm 0.00 in0.0 mm
05:35 AM 65.1°F18.4°C 64.8°F18.2°C 99% 2.0 mph S3.2 kmh S 4.2 mph6.8 kmh 29.78 in1008.5 mb 0.00 in0.0 mm 0.00 in0.0 mm 0.00 in0.0 mm
05:30 AM 65.0°F18.3°C 64.7°F18.2°C 99% 1.4 mph SSE2.3 kmh SSE 2.7 mph4.3 kmh 29.78 in1008.5 mb 0.00 in0.0 mm 0.00 in0.0 mm 0.00 in0.0 mm
05:25 AM 64.9°F18.3°C 64.6°F18.1°C 99% 2.4 mph SSW3.9 kmh SSW 4.7 mph7.6 kmh 29.78 in1008.5 mb 0.00 in0.0 mm 0.00 in0.0 mm 0.00 in0.0 mm
05:20 AM 64.8°F18.2°C 64.5°F18.1°C 99% Calm Calm -- 29.78 in1008.5 mb 0.00 in0.0 mm 0.00 in0.0 mm 0.00 in0.0 mm
05:15 AM 64.8°F18.2°C 64.5°F18.1°C 99% Calm Calm -- 29.77 in1008.1 mb 0.00 in0.0 mm 0.00 in0.0 mm 0.00 in0.0 mm
05:10 AM 64.8°F18.2°C 64.5°F18.1°C 99% Calm Calm -- 29.77 in1008.1 mb 0.00 in0.0 mm 0.00 in0.0 mm 0.00 in0.0 mm
05:05 AM 64.7°F18.2°C 64.4°F18.0°C 99% 0.2 mph N0.3 kmh N 1.7 mph2.7 kmh 29.77 in1008.1 mb 0.00 in0.0 mm 0.00 in0.0 mm 0.00 in0.0 mm
05:00 AM 64.6°F18.1°C 64.3°F17.9°C 99% Calm Calm -- 29.77 in1008.1 mb 0.00 in0.0 mm 0.00 in0.0 mm 0.00 in0.0 mm
04:55 AM 64.6°F18.1°C 64.3°F17.9°C 99% 0.1 mph S0.2 kmh S 1.7 mph2.7 kmh 29.77 in1008.1 mb 0.00 in0.0 mm 0.00 in0.0 mm 0.00 in0.0 mm
04:50 AM 64.6°F18.1°C 64.3°F17.9°C 99% Calm Calm -- 29.77 in1008.1 mb 0.00 in0.0 mm 0.00 in0.0 mm 0.00 in0.0 mm
04:45 AM 64.6°F18.1°C 64.3°F17.9°C 99% 0.1 mph N0.2 kmh N 1.7 mph2.7 kmh 29.77 in1008.1 mb 0.00 in0.0 mm 0.00 in0.0 mm 0.00 in0.0 mm
04:40 AM 64.5°F18.1°C 64.2°F17.9°C 99% Calm Calm -- 29.77 in1008.1 mb 0.00 in0.0 mm 0.00 in0.0 mm 0.00 in0.0 mm
04:35 AM 64.4°F18.0°C 64.1°F17.8°C 99% Calm Calm -- 29.76 in1007.8 mb 0.00 in0.0 mm 0.00 in0.0 mm 0.00 in0.0 mm
04:30 AM 64.4°F18.0°C 64.1°F17.8°C 99% Calm Calm -- 29.76 in1007.8 mb 0.00 in0.0 mm 0.00 in0.0 mm 0.00 in0.0 mm
04:25 AM 64.2°F17.9°C 63.9°F17.7°C 99% Calm Calm -- 29.77 in1008.1 mb 0.00 in0.0 mm 0.00 in0.0 mm 0.00 in0.0 mm
04:20 AM 64.2°F17.9°C 63.9°F17.7°C 99% Calm Calm -- 29.77 in1008.1 mb 0.00 in0.0 mm 0.00 in0.0 mm 0.00 in0.0 mm
04:15 AM 64.2°F17.9°C 63.9°F17.7°C 99% Calm Calm -- 29.77 in1008.1 mb 0.00 in0.0 mm 0.00 in0.0 mm 0.00 in0.0 mm
04:10 AM 64.1°F17.8°C 63.8°F17.7°C 99% Calm Calm -- 29.77 in1008.1 mb 0.00 in0.0 mm 0.00 in0.0 mm 0.00 in0.0 mm
04:05 AM 64.0°F17.8°C 63.7°F17.6°C 99% Calm Calm -- 29.77 in1008.1 mb 0.00 in0.0 mm 0.00 in0.0 mm 0.00 in0.0 mm
04:00 AM 63.9°F17.7°C 63.6°F17.6°C 99% 0.7 mph SSW1.1 kmh SSW 3.2 mph5.1 kmh 29.77 in1008.1 mb 0.00 in0.0 mm 0.00 in0.0 mm 0.00 in0.0 mm
03:55 AM 63.9°F17.7°C 63.6°F17.6°C 99% 1.6 mph SSW2.6 kmh SSW 2.7 mph4.3 kmh 29.77 in1008.1 mb 0.00 in0.0 mm 0.00 in0.0 mm 0.00 in0.0 mm
03:50 AM 63.8°F17.7°C 63.5°F17.5°C 99% 2.6 mph SSE4.2 kmh SSE 4.2 mph6.8 kmh 29.77 in1008.1 mb 0.00 in0.0 mm 0.00 in0.0 mm 0.00 in0.0 mm
03:45 AM 63.7°F17.6°C 63.4°F17.4°C 99% 0.8 mph S1.3 kmh S 2.2 mph3.5 kmh 29.77 in1008.1 mb 0.00 in0.0 mm 0.00 in0.0 mm 0.00 in0.0 mm
03:40 AM 63.6°F17.6°C 63.3°F17.4°C 99% 1.4 mph S2.3 kmh S 3.2 mph5.1 kmh 29.77 in1008.1 mb 0.00 in0.0 mm 0.00 in0.0 mm 0.00 in0.0 mm
03:35 AM 63.5°F17.5°C 63.2°F17.3°C 99% 2.5 mph S4.0 kmh S 4.2 mph6.8 kmh 29.77 in1008.1 mb 0.00 in0.0 mm 0.00 in0.0 mm 0.00 in0.0 mm
03:30 AM 63.5°F17.5°C 63.2°F17.3°C 99% 2.9 mph SSW4.7 kmh SSW 4.2 mph6.8 kmh 29.77 in1008.1 mb 0.00 in0.0 mm 0.00 in0.0 mm 0.00 in0.0 mm
03:25 AM 63.5°F17.5°C 63.2°F17.3°C 99% 2.2 mph S3.5 kmh S 3.7 mph6.0 kmh 29.77 in1008.1 mb 0.00 in0.0 mm 0.00 in0.0 mm 0.00 in0.0 mm
03:20 AM 63.5°F17.5°C 63.2°F17.3°C 99% 1.9 mph SSW3.1 kmh SSW 3.7 mph6.0 kmh 29.77 in1008.1 mb 0.00 in0.0 mm 0.00 in0.0 mm 0.00 in0.0 mm
03:15 AM 63.4°F17.4°C 63.1°F17.3°C 99% 1.8 mph NE2.9 kmh NE 2.7 mph4.3 kmh 29.77 in1008.1 mb 0.00 in0.0 mm 0.00 in0.0 mm 0.00 in0.0 mm
03:10 AM 63.1°F17.3°C 62.8°F17.1°C 99% Calm Calm -- 29.77 in1008.1 mb 0.00 in0.0 mm 0.00 in0.0 mm 0.00 in0.0 mm
03:05 AM 63.2°F17.3°C 62.9°F17.2°C 99% Calm Calm -- 29.77 in1008.1 mb 0.00 in0.0 mm 0.00 in0.0 mm 0.00 in0.0 mm
03:00 AM 63.4°F17.4°C 63.1°F17.3°C 99% Calm Calm -- 29.77 in1008.1 mb 0.00 in0.0 mm 0.00 in0.0 mm 0.00 in0.0 mm
02:55 AM 63.6°F17.6°C 63.3°F17.4°C 99% Calm Calm -- 29.77 in1008.1 mb 0.00 in0.0 mm 0.00 in0.0 mm 0.00 in0.0 mm
02:50 AM 63.7°F17.6°C 63.4°F17.4°C 99% Calm Calm -- 29.77 in1008.1 mb 0.00 in0.0 mm 0.00 in0.0 mm 0.00 in0.0 mm
02:45 AM 63.9°F17.7°C 63.6°F17.6°C 99% Calm Calm -- 29.77 in1008.1 mb 0.00 in0.0 mm 0.00 in0.0 mm 0.00 in0.0 mm
02:40 AM 64.0°F17.8°C 63.7°F17.6°C 99% Calm Calm -- 29.77 in1008.1 mb 0.00 in0.0 mm 0.00 in0.0 mm 0.00 in0.0 mm
02:35 AM 64.1°F17.8°C 63.8°F17.7°C 99% Calm Calm -- 29.76 in1007.8 mb 0.00 in0.0 mm 0.00 in0.0 mm 0.00 in0.0 mm
02:30 AM 64.2°F17.9°C 63.9°F17.7°C 99% Calm Calm -- 29.76 in1007.8 mb 0.00 in0.0 mm 0.00 in0.0 mm 0.00 in0.0 mm
02:25 AM 64.2°F17.9°C 63.9°F17.7°C 99% Calm Calm -- 29.76 in1007.8 mb 0.00 in0.0 mm 0.00 in0.0 mm 0.00 in0.0 mm
02:20 AM 64.4°F18.0°C 64.1°F17.8°C 99% Calm Calm -- 29.76 in1007.8 mb 0.00 in0.0 mm 0.00 in0.0 mm 0.00 in0.0 mm
02:15 AM 64.4°F18.0°C 64.1°F17.8°C 99% Calm Calm -- 29.76 in1007.8 mb 0.00 in0.0 mm 0.00 in0.0 mm 0.00 in0.0 mm
02:10 AM 64.4°F18.0°C 64.1°F17.8°C 99% Calm Calm -- 29.77 in1008.1 mb 0.00 in0.0 mm 0.00 in0.0 mm 0.00 in0.0 mm
02:05 AM 64.4°F18.0°C 64.1°F17.8°C 99% 0.2 mph NE0.3 kmh NE 1.7 mph2.7 kmh 29.77 in1008.1 mb 0.00 in0.0 mm 0.00 in0.0 mm 0.00 in0.0 mm
02:00 AM 64.4°F18.0°C 64.1°F17.8°C 99% 0.1 mph NE0.2 kmh NE 1.1 mph1.8 kmh 29.77 in1008.1 mb 0.00 in0.0 mm 0.00 in0.0 mm 0.00 in0.0 mm
01:55 AM 64.4°F18.0°C 64.1°F17.8°C 99% 0.8 mph NE1.3 kmh NE 2.7 mph4.3 kmh 29.77 in1008.1 mb 0.00 in0.0 mm 0.00 in0.0 mm 0.00 in0.0 mm
01:50 AM 64.4°F18.0°C 64.1°F17.8°C 99% 0.8 mph NE1.3 kmh NE 2.2 mph3.5 kmh 29.76 in1007.8 mb 0.00 in0.0 mm 0.00 in0.0 mm 0.00 in0.0 mm
01:45 AM 64.4°F18.0°C 64.1°F17.8°C 99% 0.5 mph NE0.8 kmh NE 2.2 mph3.5 kmh 29.76 in1007.8 mb 0.00 in0.0 mm 0.00 in0.0 mm 0.00 in0.0 mm
01:40 AM 64.4°F18.0°C 64.1°F17.8°C 99% 1.2 mph NE1.9 kmh NE 3.2 mph5.1 kmh 29.76 in1007.8 mb 0.00 in0.0 mm 0.00 in0.0 mm 0.00 in0.0 mm
01:35 AM 64.2°F17.9°C 63.9°F17.7°C 99% 1.3 mph E2.1 kmh E 3.2 mph5.1 kmh 29.76 in1007.8 mb 0.00 in0.0 mm 0.00 in0.0 mm 0.00 in0.0 mm
01:30 AM 64.2°F17.9°C 63.9°F17.7°C 99% 1.8 mph S2.9 kmh S 3.2 mph5.1 kmh 29.76 in1007.8 mb 0.00 in0.0 mm 0.00 in0.0 mm 0.00 in0.0 mm
01:25 AM 64.2°F17.9°C 63.9°F17.7°C 99% 1.8 mph SSW2.9 kmh SSW 3.7 mph6.0 kmh 29.77 in1008.1 mb 0.00 in0.0 mm 0.00 in0.0 mm 0.00 in0.0 mm
01:20 AM 64.2°F17.9°C 63.9°F17.7°C 99% 1.8 mph S2.9 kmh S 4.2 mph6.8 kmh 29.77 in1008.1 mb 0.00 in0.0 mm 0.00 in0.0 mm 0.00 in0.0 mm
01:15 AM 64.2°F17.9°C 63.9°F17.7°C 99% 0.9 mph S1.4 kmh S 1.7 mph2.7 kmh 29.77 in1008.1 mb 0.00 in0.0 mm 0.00 in0.0 mm 0.00 in0.0 mm
01:10 AM 64.1°F17.8°C 63.8°F17.7°C 99% 1.5 mph S2.4 kmh S 4.2 mph6.8 kmh 29.77 in1008.1 mb 0.00 in0.0 mm 0.00 in0.0 mm 0.00 in0.0 mm
01:05 AM 64.0°F17.8°C 63.8°F17.7°C 99% 0.5 mph S0.8 kmh S 2.7 mph4.3 kmh 29.77 in1008.1 mb 0.00 in0.0 mm 0.00 in0.0 mm 0.00 in0.0 mm
01:00 AM 64.0°F17.8°C 63.7°F17.6°C 99% Calm Calm -- 29.77 in1008.1 mb 0.00 in0.0 mm 0.00 in0.0 mm 0.00 in0.0 mm
12:55 AM 64.0°F17.8°C 63.7°F17.6°C 99% Calm Calm -- 29.77 in1008.1 mb 0.00 in0.0 mm 0.00 in0.0 mm 0.00 in0.0 mm
12:50 AM 64.0°F17.8°C 63.7°F17.6°C 99% Calm Calm -- 29.78 in1008.5 mb 0.00 in0.0 mm 0.00 in0.0 mm 0.00 in0.0 mm
12:45 AM 64.0°F17.8°C 63.7°F17.6°C 99% Calm Calm -- 29.78 in1008.5 mb 0.00 in0.0 mm 0.00 in0.0 mm 0.00 in0.0 mm
12:40 AM 63.9°F17.7°C 63.7°F17.6°C 99% Calm Calm -- 29.78 in1008.5 mb 0.00 in0.0 mm 0.00 in0.0 mm 0.00 in0.0 mm
12:35 AM 63.9°F17.7°C 63.6°F17.6°C 99% Calm Calm -- 29.78 in1008.5 mb 0.00 in0.0 mm 0.00 in0.0 mm 0.00 in0.0 mm
12:30 AM 63.9°F17.7°C 63.6°F17.6°C 99% Calm Calm -- 29.78 in1008.5 mb 0.00 in0.0 mm 0.00 in0.0 mm 0.00 in0.0 mm
12:25 AM 63.9°F17.7°C 63.6°F17.6°C 99% Calm Calm -- 29.78 in1008.5 mb 0.00 in0.0 mm 0.00 in0.0 mm 0.00 in0.0 mm
12:20 AM 63.9°F17.7°C 63.6°F17.6°C 99% 0.4 mph S0.6 kmh S 1.7 mph2.7 kmh 29.78 in1008.5 mb 0.00 in0.0 mm 0.00 in0.0 mm 0.00 in0.0 mm
12:15 AM 64.0°F17.8°C 63.7°F17.6°C 99% Calm Calm -- 29.78 in1008.5 mb 0.00 in0.0 mm 0.00 in0.0 mm 0.00 in0.0 mm
12:10 AM 64.0°F17.8°C 63.7°F17.6°C 99% Calm Calm -- 29.78 in1008.5 mb 0.00 in0.0 mm 0.00 in0.0 mm 0.00 in0.0 mm
12:05 AM 63.9°F17.7°C 63.6°F17.6°C 99% 0.5 mph SSW0.8 kmh SSW 1.7 mph2.7 kmh 29.78 in1008.5 mb 0.00 in0.0 mm 0.00 in0.0 mm 0.00 in0.0 mm
12:00 AM 63.9°F17.7°C 63.6°F17.6°C 99% Calm Calm -- 29.78 in1008.5 mb 0.00 in0.0 mm 0.00 in0.0 mm 0.00 in0.0 mm